createdAt,value
2022-12-13T00:02:27.167Z,19.02
2022-12-13T00:04:55.453Z,17.08
2022-12-13T00:07:24.531Z,24.83
2022-12-13T00:09:53.565Z,20.27
2022-12-13T00:12:23.870Z,21.42
2022-12-13T00:15:03.580Z,20.67
2022-12-13T00:17:35.907Z,22.42
2022-12-13T00:20:04.980Z,24.08
2022-12-13T00:25:06.406Z,23.17
2022-12-13T00:27:43.075Z,21.15
2022-12-13T00:30:13.391Z,22.00
2022-12-13T00:32:41.364Z,19.77
2022-12-13T00:35:12.524Z,19.13
2022-12-13T00:37:41.298Z,18.30
2022-12-13T00:40:12.311Z,22.38
2022-12-13T00:42:40.753Z,17.88
2022-12-13T00:45:15.933Z,19.88
2022-12-13T00:50:35.819Z,18.95
2022-12-13T00:53:04.024Z,18.13
2022-12-13T00:55:35.340Z,18.25
2022-12-13T00:58:03.174Z,17.90
2022-12-13T01:00:34.813Z,18.58
2022-12-13T01:03:20.921Z,16.52
2022-12-13T01:06:14.356Z,17.42
2022-12-13T01:08:38.869Z,19.05
2022-12-13T01:11:07.848Z,18.27
2022-12-13T01:13:36.326Z,18.80
2022-12-13T01:16:09.543Z,19.58
2022-12-13T01:21:16.129Z,22.98
2022-12-13T01:23:45.808Z,21.35
2022-12-13T01:26:17.006Z,21.85
2022-12-13T01:28:44.636Z,20.15
2022-12-13T01:31:17.824Z,19.63
2022-12-13T01:33:45.864Z,17.80
2022-12-13T01:36:27.301Z,17.92
2022-12-13T01:38:58.777Z,16.70
2022-12-13T01:41:29.110Z,17.73
2022-12-13T01:44:03.930Z,18.25
2022-12-13T01:46:37.895Z,17.92
2022-12-13T01:49:20.330Z,17.67
2022-12-13T01:51:57.085Z,18.52
2022-12-13T01:54:46.668Z,16.80
2022-12-13T01:57:21.397Z,18.25
2022-12-13T01:59:52.627Z,16.45
2022-12-13T02:02:27.495Z,15.13
2022-12-13T02:05:16.743Z,18.30
2022-12-13T02:07:53.927Z,16.48
2022-12-13T02:10:21.920Z,15.18
2022-12-13T02:12:49.943Z,17.20
2022-12-13T02:15:20.607Z,15.70
2022-12-13T02:17:58.357Z,17.27
2022-12-13T02:20:53.658Z,14.68
2022-12-13T02:24:08.944Z,16.35
2022-12-13T02:26:55.827Z,17.08
2022-12-13T02:30:13.587Z,17.67
2022-12-13T02:33:12.017Z,16.98
2022-12-13T02:36:12.849Z,18.08
2022-12-13T02:39:03.913Z,15.27
2022-12-13T02:41:37.830Z,15.30
2022-12-13T02:44:23.444Z,17.05
2022-12-13T02:46:58.562Z,14.55
2022-12-13T02:49:33.694Z,15.15
2022-12-13T02:52:02.334Z,15.50
2022-12-13T02:54:32.270Z,14.93
2022-12-13T02:57:02.602Z,13.32
2022-12-13T02:59:41.545Z,13.30
2022-12-13T03:03:08.274Z,15.48
2022-12-13T03:06:34.168Z,12.93
2022-12-13T03:09:20.554Z,13.38
2022-12-13T03:12:12.648Z,13.18
2022-12-13T03:15:01.277Z,15.20
2022-12-13T03:17:37.860Z,12.57
2022-12-13T03:20:12.581Z,15.15
2022-12-13T03:22:59.360Z,15.25
2022-12-13T03:25:32.805Z,15.68
2022-12-13T03:30:44.931Z,15.55
2022-12-13T03:33:13.720Z,15.88
2022-12-13T03:35:45.821Z,17.13
2022-12-13T03:38:21.825Z,18.08
2022-12-13T03:40:56.500Z,18.70
2022-12-13T03:43:28.647Z,15.38
2022-12-13T03:45:56.829Z,15.90
2022-12-13T03:51:14.520Z,15.85
2022-12-13T03:53:46.846Z,13.02
2022-12-13T03:56:16.259Z,14.32
2022-12-13T03:58:44.910Z,11.02
2022-12-13T04:01:16.964Z,10.35
2022-12-13T04:03:48.504Z,9.30
2022-12-13T04:06:22.526Z,7.68
2022-12-13T04:08:52.398Z,7.88
2022-12-13T04:11:42.584Z,8.05
2022-12-13T04:14:22.814Z,8.40
2022-12-13T04:16:53.218Z,6.40
2022-12-13T04:19:23.252Z,8.20
2022-12-13T04:21:54.425Z,8.88
2022-12-13T04:24:31.845Z,8.93
2022-12-13T04:27:02.419Z,8.00
2022-12-13T04:29:34.198Z,9.45
2022-12-13T04:32:26.929Z,9.40
2022-12-13T04:35:12.534Z,10.55
2022-12-13T04:37:43.377Z,9.63
2022-12-13T04:40:11.912Z,9.98
2022-12-13T04:42:39.417Z,9.88
2022-12-13T04:45:09.619Z,10.68
2022-12-13T04:47:37.639Z,10.32
2022-12-13T04:50:05.557Z,12.05
2022-12-13T04:52:32.973Z,11.43
2022-12-13T04:55:00.232Z,12.48
2022-12-13T04:57:28.333Z,10.80
2022-12-13T04:59:55.529Z,11.43
2022-12-13T05:02:23.572Z,10.35
2022-12-13T05:04:53.770Z,11.05
2022-12-13T05:07:22.967Z,11.48
2022-12-13T05:09:50.219Z,12.90
2022-12-13T05:12:23.042Z,11.82
2022-12-13T05:14:52.191Z,11.80
2022-12-13T05:17:19.867Z,11.07
2022-12-13T05:19:47.237Z,11.85
2022-12-13T05:22:20.677Z,10.82
2022-12-13T05:24:49.113Z,12.88
2022-12-13T05:27:25.130Z,11.90
2022-12-13T05:30:05.257Z,11.68
2022-12-13T05:32:43.776Z,12.07
2022-12-13T05:35:22.538Z,12.38
2022-12-13T05:37:55.498Z,11.65
2022-12-13T05:40:28.592Z,12.13
2022-12-13T05:43:01.683Z,11.95
2022-12-13T05:45:31.183Z,13.20
2022-12-13T05:47:58.807Z,12.30
2022-12-13T05:50:26.331Z,11.38
2022-12-13T05:52:53.719Z,10.85
2022-12-13T05:55:21.698Z,11.90
2022-12-13T05:57:50.998Z,12.18
2022-12-13T06:00:29.322Z,11.68
2022-12-13T06:03:00.717Z,12.50
2022-12-13T06:05:30.671Z,11.55
2022-12-13T06:07:59.043Z,12.40
2022-12-13T06:10:34.382Z,11.05
2022-12-13T06:13:21.855Z,13.73
2022-12-13T06:16:01.441Z,13.20
2022-12-13T06:18:33.074Z,12.25
2022-12-13T06:21:05.937Z,12.02
2022-12-13T06:23:35.484Z,12.68
2022-12-13T06:26:08.208Z,12.18
2022-12-13T06:28:35.910Z,12.73
2022-12-13T06:31:05.361Z,11.40
2022-12-13T06:33:36.924Z,11.90
2022-12-13T06:36:05.117Z,12.13
2022-12-13T06:38:33.280Z,11.60
2022-12-13T06:41:12.790Z,11.02
2022-12-13T06:43:46.400Z,10.75
2022-12-13T06:46:15.076Z,9.60
2022-12-13T06:48:42.475Z,10.07
2022-12-13T06:51:11.683Z,9.40
2022-12-13T06:53:41.471Z,10.70
2022-12-13T06:56:14.262Z,9.77
2022-12-13T06:58:43.020Z,14.75
2022-12-13T07:01:24.618Z,14.23
2022-12-13T07:03:56.161Z,9.60
2022-12-13T07:06:25.242Z,9.48
2022-12-13T07:08:57.537Z,10.18
2022-12-13T07:11:28.762Z,16.70
2022-12-13T07:13:56.985Z,15.45
2022-12-13T07:16:25.537Z,17.50
2022-12-13T07:19:01.648Z,19.67
2022-12-13T07:21:33.236Z,14.32
2022-12-13T07:24:02.267Z,10.60
2022-12-13T07:26:29.915Z,9.25
2022-12-13T07:28:57.559Z,10.23
2022-12-13T07:31:26.949Z,10.35
2022-12-13T07:33:55.283Z,11.50
2022-12-13T07:36:24.222Z,12.80
2022-12-13T07:38:57.023Z,12.80
2022-12-13T07:41:27.466Z,12.65
2022-12-13T07:43:56.348Z,11.20
2022-12-13T07:46:31.830Z,11.23
2022-12-13T07:49:03.103Z,12.25
2022-12-13T07:51:31.525Z,14.90
2022-12-13T07:53:59.146Z,11.50
2022-12-13T07:56:26.445Z,11.75
2022-12-13T07:58:54.807Z,11.00
2022-12-13T08:01:23.565Z,11.70
2022-12-13T08:03:51.697Z,12.90
2022-12-13T08:06:21.502Z,17.38
2022-12-13T08:08:51.328Z,31.58
2022-12-13T08:11:18.727Z,10.25
2022-12-13T08:13:45.949Z,8.57
2022-12-13T08:16:27.597Z,10.15
2022-12-13T08:19:02.078Z,8.98
2022-12-13T08:21:56.637Z,9.80
2022-12-13T08:24:30.312Z,7.82
2022-12-13T08:27:03.456Z,8.43
2022-12-13T08:29:36.185Z,9.23
2022-12-13T08:32:10.620Z,9.82
2022-12-13T08:34:40.177Z,8.30
2022-12-13T08:37:07.728Z,9.35
2022-12-13T08:39:38.168Z,8.77
2022-12-13T08:42:18.241Z,9.75
2022-12-13T08:44:55.055Z,10.27
2022-12-13T08:47:27.183Z,11.05
2022-12-13T09:11:59.389Z,7.93
2022-12-13T09:14:51.684Z,8.15
2022-12-13T09:17:23.998Z,8.00
2022-12-13T09:19:58.052Z,9.60
2022-12-13T09:22:35.033Z,8.70
2022-12-13T09:25:05.574Z,6.95
2022-12-13T09:27:39.662Z,8.98
2022-12-13T09:30:22.940Z,9.25
2022-12-13T09:33:18.165Z,9.00
2022-12-13T09:35:49.662Z,8.95
2022-12-13T09:38:18.280Z,8.98
2022-12-13T09:43:42.508Z,8.50
2022-12-13T09:46:44.951Z,8.07
2022-12-13T09:49:35.168Z,7.70
2022-12-13T09:52:21.499Z,8.65
2022-12-13T09:54:56.895Z,8.23
2022-12-13T09:57:34.388Z,7.97
2022-12-13T10:00:08.642Z,8.23
2022-12-13T10:03:06.674Z,8.23
2022-12-13T10:05:39.885Z,8.35
2022-12-13T10:08:17.261Z,8.45
2022-12-13T10:10:48.877Z,9.65
2022-12-13T10:13:46.015Z,9.45
2022-12-13T10:16:23.212Z,10.23
2022-12-13T10:18:52.850Z,94.78
2022-12-13T10:21:43.225Z,12.90
2022-12-13T10:24:36.252Z,25.40
2022-12-13T10:27:40.939Z,11.80
2022-12-13T10:30:13.711Z,14.55
2022-12-13T10:32:56.585Z,10.65
2022-12-13T10:35:37.304Z,9.25
2022-12-13T10:38:37.288Z,10.43
2022-12-13T10:41:32.407Z,9.15
2022-12-13T10:44:21.356Z,10.77
2022-12-13T10:47:16.839Z,9.27
2022-12-13T10:50:00.292Z,10.90
2022-12-13T10:52:43.520Z,10.50
2022-12-13T10:55:35.013Z,9.70
2022-12-13T10:58:20.527Z,10.15
2022-12-13T11:00:51.201Z,9.68
2022-12-13T11:03:44.321Z,10.50
2022-12-13T11:06:26.472Z,8.35
2022-12-13T11:11:47.039Z,13.48
2022-12-13T11:14:16.064Z,9.77
2022-12-13T11:16:49.987Z,12.07
2022-12-13T11:19:25.619Z,10.25
2022-12-13T11:21:54.599Z,10.00
2022-12-13T11:24:33.165Z,10.07
2022-12-13T11:27:29.038Z,11.25
2022-12-13T11:30:19.630Z,11.57
2022-12-13T11:32:59.438Z,10.38
2022-12-13T11:35:36.608Z,12.65
2022-12-13T11:39:01.746Z,11.55
2022-12-13T11:41:40.990Z,11.10
2022-12-13T11:44:24.773Z,11.48
2022-12-13T11:47:01.173Z,11.33
2022-12-13T11:49:41.043Z,10.00
2022-12-13T11:52:39.447Z,12.52
2022-12-13T11:55:34.554Z,10.32
2022-12-13T11:58:10.276Z,10.98
2022-12-13T12:01:05.101Z,10.60
2022-12-13T12:04:07.288Z,9.55
2022-12-13T12:06:50.753Z,9.10
2022-12-13T12:09:22.627Z,12.48
2022-12-13T12:12:02.440Z,9.55
2022-12-13T12:20:23.960Z,11.18
2022-12-13T12:23:21.130Z,10.38
2022-12-13T12:25:58.292Z,10.68
2022-12-13T12:28:53.740Z,15.48
2022-12-13T12:31:56.083Z,11.18
2022-12-13T12:34:42.163Z,10.45
2022-12-13T12:37:28.566Z,12.90
2022-12-13T12:40:23.703Z,9.75
2022-12-13T12:43:34.881Z,10.23
2022-12-13T12:47:01.344Z,10.93
2022-12-13T12:50:01.768Z,10.25
2022-12-13T12:53:02.352Z,11.05
2022-12-13T12:56:08.078Z,10.88
2022-12-13T12:58:47.836Z,12.35
2022-12-13T13:01:52.077Z,10.57
2022-12-13T13:04:31.822Z,10.77
2022-12-13T13:07:24.075Z,9.90
2022-12-13T13:09:57.977Z,10.80
2022-12-13T13:12:48.448Z,10.32
2022-12-13T13:15:33.994Z,10.60
2022-12-13T13:18:02.257Z,10.13
2022-12-13T15:04:46.390Z,64.00
2022-12-13T15:08:18.783Z,50.83
2022-12-13T15:17:43.198Z,28.73
2022-12-13T15:20:31.010Z,26.75
2022-12-13T15:23:21.126Z,24.02
2022-12-13T15:26:00.302Z,23.45
2022-12-13T15:28:32.211Z,25.98
2022-12-13T15:31:01.947Z,29.50
2022-12-13T15:33:34.395Z,25.42
2022-12-13T15:36:18.177Z,33.17
2022-12-13T15:38:57.419Z,24.75
2022-12-13T15:41:37.189Z,24.80
2022-12-13T15:44:25.467Z,30.60
2022-12-13T15:47:27.895Z,31.75
2022-12-13T15:49:57.681Z,26.05
2022-12-13T15:52:28.485Z,23.35
2022-12-13T15:55:11.019Z,27.67
2022-12-13T15:57:57.456Z,25.30
2022-12-13T16:00:34.595Z,25.58
2022-12-13T16:03:12.785Z,27.45
2022-12-13T16:05:51.724Z,28.08
2022-12-13T16:08:38.509Z,28.48
2022-12-13T16:11:08.235Z,29.00
2022-12-13T16:13:38.349Z,28.60
2022-12-13T16:16:30.723Z,28.25
2022-12-13T16:19:01.533Z,26.08
2022-12-13T16:21:30.424Z,28.55
2022-12-13T16:23:57.672Z,25.52
2022-12-13T16:26:28.575Z,32.05
2022-12-13T16:29:00.550Z,31.48
2022-12-13T16:31:35.460Z,29.08
2022-12-13T16:34:07.206Z,31.42
2022-12-13T16:36:34.555Z,30.60
2022-12-13T16:39:02.129Z,29.67
2022-12-13T16:41:29.558Z,28.92
2022-12-13T16:44:03.454Z,32.10
2022-12-13T16:47:17.353Z,30.77
2022-12-13T16:49:28.171Z,33.03
2022-12-13T16:51:59.979Z,36.38
2022-12-13T16:54:27.593Z,37.17
2022-12-13T16:56:56.372Z,35.22
2022-12-13T16:59:26.685Z,54.42
2022-12-13T17:01:54.959Z,38.10
2022-12-13T17:04:25.693Z,48.47
2022-12-13T17:06:54.919Z,43.30
2022-12-13T17:09:25.327Z,47.63
2022-12-13T17:11:52.979Z,42.15
2022-12-13T17:14:23.457Z,44.05
2022-12-13T17:16:50.923Z,40.67
2022-12-13T17:19:18.706Z,40.85
2022-12-13T17:21:46.225Z,43.40
2022-12-13T17:24:13.851Z,55.13
2022-12-13T17:26:41.623Z,43.65
2022-12-13T17:29:25.517Z,87.50
2022-12-13T17:31:53.570Z,74.47
2022-12-13T17:34:21.329Z,48.45
2022-12-13T17:36:48.903Z,43.35
2022-12-13T17:39:16.619Z,40.30
2022-12-13T17:41:44.296Z,42.25
2022-12-13T17:44:23.084Z,41.00
2022-12-13T17:46:54.739Z,40.83
2022-12-13T17:49:23.392Z,45.90
2022-12-13T17:51:56.530Z,43.10
2022-12-13T17:54:26.790Z,49.35
2022-12-13T17:56:55.501Z,55.17
2022-12-13T17:59:24.050Z,53.03
2022-12-13T18:01:52.284Z,61.55
2022-12-13T18:04:21.169Z,57.72
2022-12-13T18:06:50.141Z,56.28
2022-12-13T18:09:18.022Z,51.40
2022-12-13T18:11:45.872Z,51.88
2022-12-13T18:14:13.462Z,44.55
2022-12-13T18:16:41.458Z,39.17
2022-12-13T18:19:12.797Z,40.47
2022-12-13T18:21:46.331Z,40.95
2022-12-13T18:24:14.620Z,39.08
2022-12-13T18:26:42.410Z,46.35
2022-12-13T18:29:10.329Z,57.78
2022-12-13T18:31:38.084Z,46.88
2022-12-13T18:34:06.715Z,43.10
2022-12-13T18:36:35.097Z,48.03
2022-12-13T18:39:04.089Z,46.90
2022-12-13T18:41:34.218Z,44.15
2022-12-13T18:44:05.739Z,44.72
2022-12-13T18:46:36.549Z,51.05
2022-12-13T18:49:06.895Z,45.65
2022-12-13T18:51:35.348Z,51.35
2022-12-13T18:54:02.928Z,48.65
2022-12-13T18:56:31.774Z,78.60
2022-12-13T18:58:59.983Z,91.43
2022-12-13T19:01:28.250Z,104.75
2022-12-13T19:03:56.352Z,110.38
2022-12-13T19:06:26.736Z,85.35
2022-12-13T19:08:58.033Z,73.25
2022-12-13T19:11:31.007Z,64.47
2022-12-13T19:13:58.580Z,52.22
2022-12-13T19:16:27.690Z,54.35
2022-12-13T19:18:55.687Z,62.78
2022-12-13T19:21:26.612Z,60.95
2022-12-13T19:23:57.742Z,43.92
2022-12-13T19:26:28.632Z,46.45
2022-12-13T19:28:58.720Z,44.35
2022-12-13T19:31:31.509Z,51.15
2022-12-13T19:34:01.106Z,49.88
2022-12-13T19:36:33.506Z,56.70
2022-12-13T19:39:01.585Z,64.85
2022-12-13T19:41:33.727Z,67.93
2022-12-13T19:44:07.208Z,58.80
2022-12-13T19:46:35.177Z,57.55
2022-12-13T19:49:02.766Z,53.30
2022-12-13T19:51:34.399Z,56.80
2022-12-13T19:54:05.574Z,57.92
2022-12-13T19:56:33.500Z,59.75
2022-12-13T19:59:04.010Z,65.18
2022-12-13T20:01:32.060Z,64.28
2022-12-13T20:03:59.651Z,70.03
2022-12-13T20:06:27.630Z,73.57
2022-12-13T20:08:56.002Z,70.13
2022-12-13T20:11:25.105Z,65.68
2022-12-13T20:13:57.095Z,51.75
2022-12-13T20:16:27.493Z,55.42
2022-12-13T20:19:00.576Z,57.72
2022-12-13T20:21:29.927Z,55.08
2022-12-13T20:23:58.116Z,58.42
2022-12-13T20:26:29.911Z,55.30
2022-12-13T20:28:57.583Z,56.78
2022-12-13T20:31:32.429Z,59.13
2022-12-13T20:34:04.527Z,61.00
2022-12-13T20:36:33.417Z,57.05
2022-12-13T20:39:05.737Z,63.70
2022-12-13T20:41:46.359Z,64.32
2022-12-13T20:44:14.356Z,59.55
2022-12-13T20:46:42.338Z,64.57
2022-12-13T20:49:10.292Z,70.15
2022-12-13T20:51:42.753Z,63.35
2022-12-13T20:54:10.899Z,65.20
2022-12-13T20:56:39.745Z,79.05
2022-12-13T20:59:16.046Z,68.20
2022-12-13T21:01:48.800Z,64.85
2022-12-13T21:04:17.157Z,93.67
2022-12-13T21:06:44.851Z,81.22
2022-12-13T21:09:13.856Z,74.53
2022-12-13T21:11:47.089Z,70.45
2022-12-13T21:14:23.072Z,66.60
2022-12-13T21:17:00.283Z,60.05
2022-12-13T21:19:37.477Z,56.75
2022-12-13T21:22:07.489Z,62.03
2022-12-13T21:24:35.249Z,58.50
2022-12-13T21:27:02.912Z,56.08
2022-12-13T21:29:30.441Z,57.72
2022-12-13T21:31:58.079Z,56.83
2022-12-13T21:34:25.723Z,54.85
2022-12-13T21:36:54.081Z,60.10
2022-12-13T21:39:29.770Z,61.17
2022-12-13T21:41:58.122Z,58.03
2022-12-13T21:44:25.960Z,63.05
2022-12-13T21:49:41.517Z,72.72
2022-12-13T21:52:09.210Z,73.57
2022-12-13T21:54:37.501Z,67.40
2022-12-13T21:57:24.320Z,71.50
2022-12-13T21:59:52.084Z,73.13
2022-12-13T22:02:20.095Z,73.68
2022-12-13T22:04:48.854Z,73.97
2022-12-13T22:07:22.167Z,72.60
2022-12-13T22:09:51.539Z,75.87
2022-12-13T22:12:25.054Z,71.72
2022-12-13T22:14:54.069Z,75.50
2022-12-13T22:17:33.046Z,82.53
2022-12-13T22:20:04.025Z,77.30
2022-12-13T22:22:32.370Z,79.35
2022-12-13T22:25:00.174Z,74.82
2022-12-13T22:27:27.888Z,82.13
2022-12-13T22:29:57.846Z,83.72
2022-12-13T22:32:31.401Z,91.13
2022-12-13T22:34:59.410Z,83.70
2022-12-13T22:37:28.069Z,83.53
2022-12-13T22:39:55.563Z,82.47
2022-12-13T22:42:23.214Z,82.47
2022-12-13T22:44:51.126Z,78.40
2022-12-13T22:47:18.687Z,79.22
2022-12-13T22:49:48.471Z,86.57
2022-12-13T22:52:16.520Z,76.90
2022-12-13T22:54:45.348Z,78.25
2022-12-13T22:57:13.016Z,81.25
2022-12-13T22:59:40.574Z,83.38
2022-12-13T23:02:10.044Z,85.45
2022-12-13T23:04:37.942Z,82.80
2022-12-13T23:07:05.369Z,85.95
2022-12-13T23:09:32.874Z,90.28
2022-12-13T23:12:19.009Z,92.72
2022-12-13T23:14:46.531Z,81.47
2022-12-13T23:17:13.987Z,76.20
2022-12-13T23:19:50.168Z,80.22
2022-12-13T23:22:25.696Z,81.80
2022-12-13T23:24:54.063Z,85.95
2022-12-13T23:27:23.856Z,76.43
2022-12-13T23:29:51.510Z,82.60
2022-12-13T23:32:19.383Z,88.07
2022-12-13T23:34:46.985Z,85.68
2022-12-13T23:37:17.621Z,89.90
2022-12-13T23:39:45.165Z,84.32
2022-12-13T23:42:12.685Z,79.53
2022-12-13T23:44:40.248Z,74.13
2022-12-13T23:47:07.711Z,66.65
2022-12-13T23:49:35.237Z,70.25
2022-12-13T23:52:02.816Z,62.15
2022-12-13T23:54:32.765Z,64.35
2022-12-13T23:57:02.908Z,59.20
2022-12-13T23:59:30.385Z,67.20
